Detalii statie FERMA VISANI-IMB [000011A7]

Toti senzorii

Date Temperatura solului [C]Precipitatii [mm]Voltaj baterie [mV]Leaf Wetness [Min]HC Air temperature [C]HC Relative humidity [%]Punctul de roua [C]
medieminmaxsumaultimatimpmedieminmaxmediemediemin
2018-12-09 16:00:00 3.2 3 3.3 0.6 6356 60 3.5 3.39 3.61 91.66 0
2018-12-09 17:00:00 3 2.8 3.2 0.2 6366 60 3.19 3.04 3.35 100 3.1 3
2018-12-09 18:00:00 2.7 2.6 2.9 0.2 6366 60 2.78 2.55 2.95 100 2.7 2.5
2018-12-09 19:00:00 2.5 2.3 2.6 0 6356 60 2.26 2.09 2.5 100 2.2 2
2018-12-09 20:00:00 2.4 2.2 2.5 0 6356 60 2.29 2.17 2.43 100 2.2 2.1
2018-12-09 21:00:00 2.2 2 2.5 0.2 6356 60 2.14 1.68 2.61 100 2.1 1.6
2018-12-09 22:00:00 2.2 2.1 2.3 0 6346 60 1.86 1.66 1.97 100 1.8 1.6
2018-12-09 23:00:00 2.2 2.1 2.4 0 6346 60 2.01 1.85 2.1 100 1.9 1.8
2018-12-10 00:00:00 1.9 1.7 2.1 0 6336 60 1.37 1.02 1.75 100 1.3 1
2018-12-10 01:00:00 2 2 2.1 0 6346 60 1.59 1.46 1.69 100 1.5 1.4
2018-12-10 02:00:00 2 2 2.2 0 6346 60 1.7 1.59 1.77 100 1.6 1.5
2018-12-10 03:00:00 2.1 2.1 2.3 0 6336 60 1.85 1.75 2.04 100 1.8 1.7
2018-12-10 04:00:00 2.2 2.1 2.3 0 6346 60 1.92 1.78 2.03 100 1.8 1.7
2018-12-10 05:00:00 2.1 2.1 2.3 0 6336 60 1.72 1.68 1.75 100 1.6 1.6
2018-12-10 06:00:00 2.1 2 2.2 0 6336 60 1.5 1.3 1.65 100 1.4 1.3
2018-12-10 07:00:00 2 2 2.1 0 6336 60 1.25 1.11 1.33 100 1.2 1.1
2018-12-10 08:00:00 2 1.9 2.1 0.2 6336 60 1 0.79 1.15 100 0.9 0.7
2018-12-10 09:00:00 1.9 1.9 2 0 6336 60 0.77 0.62 0.86 100 0.7 0.6
2018-12-10 10:00:00 2.2 2 2.4 0 6356 60 0.93 0.78 1.13 100 0.9 0.7
2018-12-10 11:00:00 2.6 2.5 2.9 0 6356 60 1.49 1.2 1.88 100 1.4 1.2
2018-12-10 12:00:00 3.1 2.9 3.4 0 6366 60 2.17 1.89 2.4 100 2.1 1.8
2018-12-10 13:00:00 3.5 3.4 3.7 0 6366 60 2.64 2.41 2.87 100 2.5 2.4
2018-12-10 14:00:00 3.9 3.7 4.1 0 6366 60 3.1 2.88 3.37 100 3 2.8
2018-12-10 15:00:00 4.1 4 4.3 0 6356 60 3.13 3 3.28 100 3 3
2018-12-10 16:00:00 3.9 3.7 4.1 0 6336 60 2.73 2.51 2.94 100 2.6 2.5
2018-12-10 17:00:00 3.5 3.3 3.8 0.2 6336 60 2.4 2.24 2.58 100 2.3 2.2
2018-12-10 18:00:00 3.2 3 3.4 0 6336 60 2.28 2.24 2.36 100 2.2 2.2
2018-12-10 19:00:00 3 2.9 3.1 0 6328 60 2.04 1.76 2.26 100 1.9 1.7
2018-12-10 20:00:00 2.9 2.8 3 0 6328 60 1.64 1.6 1.7 100 1.6 1.6
2018-12-10 21:00:00 2.7 2.6 2.8 0 6328 60 1.62 1.58 1.67 100 1.5 1.5
2018-12-10 22:00:00 2.6 2.5 2.8 0 6318 60 1.52 1.43 1.61 100 1.4 1.4
2018-12-10 23:00:00 2.4 2.2 2.5 0 6318 60 1.18 0.91 1.37 100 1.1 0.9
2018-12-11 00:00:00 2.1 2 2.4 0 6318 60 0.72 0.61 0.95 100 0.6 0.6
2018-12-11 01:00:00 1.8 1.7 2 0 6318 60 0.17 -0.37 0.63 100 0.1 -0.2
2018-12-11 02:00:00 1.4 1.3 1.8 0 6318 35 -0.63 -0.87 -0.48 100 -0.5 -0.7
2018-12-11 03:00:00 1.2 1 1.4 0 6308 0 -0.68 -0.76 -0.64 100 -0.5 -0.6
2018-12-11 04:00:00 1 0.9 1.1 0 6308 0 -0.64 -0.75 -0.56 100 -0.4 -0.6
2018-12-11 05:00:00 0.9 0.9 1.1 0 6318 0 -0.6 -0.65 -0.56 100 -0.4 -0.5
2018-12-11 06:00:00 0.8 0.8 1 0 6308 0 -0.4 -0.54 -0.32 100 -0.2 -0.4
2018-12-11 07:00:00 0.7 0.7 0.8 0 6318 0 -0.38 -0.43 -0.36 100 -0.2 -0.3
2018-12-11 08:00:00 0.6 0.5 0.7 0.2 6308 0 -0.49 -0.52 -0.43 100 -0.3 -0.4
2018-12-11 09:00:00 0.9 0.7 1.5 0 6356 45 -0.23 -0.47 0.22 100 -0.1 -0.3
2018-12-11 10:00:00 1.9 1.5 2.3 0 6366 60 0.82 0.37 1.28 100 0.7 0.3
2018-12-11 11:00:00 3 2.4 3.6 0 6434 60 2.49 1.47 3.71 100 2.4 1.4
2018-12-11 12:00:00 3.9 3.7 4.3 0 6424 60 4.02 3.89 4.21 100 3.9 3.8
2018-12-11 13:00:00 4.5 4.3 4.8 0 6416 35 4.55 4.24 4.71 100 4.5 4.2